createdAt,value
2024-04-09T00:00:27.145Z,17.10
2024-04-09T00:05:40.861Z,17.10
2024-04-09T00:10:51.219Z,17.10
2024-04-09T00:15:56.761Z,17.00
2024-04-09T00:21:03.354Z,16.90
2024-04-09T00:26:12.065Z,16.90
2024-04-09T00:31:18.324Z,16.80
2024-04-09T00:36:26.573Z,16.80
2024-04-09T00:41:35.294Z,16.70
2024-04-09T00:46:40.888Z,16.70
2024-04-09T00:51:48.908Z,16.70
2024-04-09T00:56:59.418Z,16.60
2024-04-09T01:02:06.458Z,16.50
2024-04-09T01:07:12.162Z,16.50
2024-04-09T01:12:20.653Z,16.50
2024-04-09T01:17:26.623Z,16.50
2024-04-09T01:22:38.344Z,16.50
2024-04-09T01:27:44.204Z,16.40
2024-04-09T01:32:50.727Z,16.30
2024-04-09T01:37:59.449Z,16.30
2024-04-09T01:43:06.174Z,16.20
2024-04-09T01:48:12.884Z,16.20
2024-04-09T01:53:22.525Z,16.20
2024-04-09T01:58:27.919Z,16.30
2024-04-09T02:03:33.667Z,16.20
2024-04-09T02:08:42.382Z,16.10
2024-04-09T02:13:48.875Z,16.00
2024-04-09T02:18:54.521Z,16.00
2024-04-09T02:24:03.012Z,16.00
2024-04-09T02:29:08.539Z,15.90
2024-04-09T02:34:15.319Z,15.80
2024-04-09T02:39:23.634Z,15.80
2024-04-09T02:44:32.135Z,15.70
2024-04-09T02:49:37.968Z,15.70
2024-04-09T02:54:46.551Z,15.70
2024-04-09T02:59:55.944Z,15.60
2024-04-09T03:05:01.416Z,15.60
2024-04-09T03:10:10.156Z,15.60
2024-04-09T03:15:15.838Z,15.60
2024-04-09T03:20:21.535Z,15.60
2024-04-09T03:25:29.644Z,15.50
2024-04-09T03:30:35.399Z,15.50
2024-04-09T03:35:40.992Z,15.50
2024-04-09T03:40:56.640Z,15.50
2024-04-09T03:46:07.548Z,15.40
2024-04-09T03:51:13.729Z,15.40
2024-04-09T03:56:21.891Z,15.40
2024-04-09T04:01:28.853Z,15.30
2024-04-09T04:06:34.474Z,15.20
2024-04-09T04:11:43.087Z,15.20
2024-04-09T04:16:49.053Z,15.10
2024-04-09T04:21:54.575Z,15.10
2024-04-09T04:27:03.353Z,15.10
2024-04-09T04:32:09.441Z,15.00
2024-04-09T04:37:15.002Z,15.00
2024-04-09T04:42:23.124Z,14.90
2024-04-09T04:47:30.736Z,14.90
2024-04-09T04:52:36.343Z,14.80
2024-04-09T04:57:44.543Z,14.70
2024-04-09T05:02:50.105Z,14.60
2024-04-09T05:07:55.890Z,14.60
2024-04-09T05:13:04.102Z,14.60
2024-04-09T05:18:10.971Z,14.50
2024-04-09T05:23:16.810Z,14.50
2024-04-09T05:28:24.956Z,14.50
2024-04-09T05:33:30.594Z,14.40
2024-04-09T05:38:38.262Z,14.30
2024-04-09T05:43:53.579Z,14.20
2024-04-09T05:49:02.203Z,14.10
2024-04-09T05:54:08.131Z,14.00
2024-04-09T05:59:16.355Z,13.90
2024-04-09T06:04:22.255Z,13.80
2024-04-09T06:09:27.845Z,13.60
2024-04-09T06:14:35.952Z,13.50
2024-04-09T06:19:42.031Z,13.40
2024-04-09T06:24:50.561Z,13.40
2024-04-09T06:29:59.385Z,13.30
2024-04-09T06:35:05.677Z,13.30
2024-04-09T06:40:11.971Z,13.10
2024-04-09T06:45:20.239Z,13.00
2024-04-09T06:50:25.789Z,13.00
2024-04-09T06:55:31.626Z,12.90
2024-04-09T07:00:40.959Z,13.00
2024-04-09T07:05:46.834Z,13.00
2024-04-09T07:10:58.657Z,12.90
2024-04-09T07:16:07.572Z,12.90
2024-04-09T07:21:13.433Z,12.90
2024-04-09T07:26:19.116Z,12.90
2024-04-09T07:31:27.433Z,12.90
2024-04-09T07:36:33.189Z,12.90
2024-04-09T07:41:38.657Z,13.00
2024-04-09T07:46:49.834Z,13.00
2024-04-09T07:51:55.721Z,13.10
2024-04-09T07:57:07.868Z,13.00
2024-04-09T08:02:16.573Z,13.00
2024-04-09T08:07:22.366Z,13.00
2024-04-09T08:12:28.129Z,13.00
2024-04-09T08:17:40.404Z,13.00
2024-04-09T08:22:46.227Z,13.10
2024-04-09T08:27:52.815Z,13.10
2024-04-09T08:33:01.255Z,13.20
2024-04-09T08:38:09.367Z,13.30
2024-04-09T08:43:16.921Z,13.40
2024-04-09T08:48:27.053Z,13.40
2024-04-09T08:53:36.280Z,13.50
2024-04-09T08:58:41.888Z,13.60
2024-04-09T09:03:51.449Z,13.70
2024-04-09T09:08:58.617Z,13.90
2024-04-09T09:14:21.256Z,13.90
2024-04-09T09:19:32.196Z,14.00
2024-04-09T09:24:38.396Z,14.30
2024-04-09T09:29:44.015Z,14.60
2024-04-09T09:34:52.699Z,15.20
2024-04-09T09:40:00.699Z,15.40
2024-04-09T09:45:11.099Z,15.30
2024-04-09T09:50:21.954Z,15.00
2024-04-09T09:55:29.488Z,15.10
2024-04-09T10:00:42.712Z,15.40
2024-04-09T10:05:52.312Z,15.40
2024-04-09T10:10:57.978Z,15.40
2024-04-09T10:16:04.824Z,15.20
2024-04-09T10:21:15.650Z,15.10
2024-04-09T10:26:21.974Z,14.90
2024-04-09T10:31:27.579Z,14.80
2024-04-09T10:36:37.497Z,14.70
2024-04-09T10:41:42.996Z,14.80
2024-04-09T10:46:48.928Z,15.00
2024-04-09T10:51:57.315Z,14.90
2024-04-09T10:57:06.069Z,14.70
2024-04-09T11:02:15.140Z,14.50
2024-04-09T11:07:23.425Z,14.30
2024-04-09T11:12:29.562Z,14.20
2024-04-09T11:17:35.870Z,14.10
2024-04-09T11:22:51.270Z,14.00
2024-04-09T11:27:57.569Z,14.00
2024-04-09T11:33:03.984Z,14.00
2024-04-09T11:38:15.242Z,14.00
2024-04-09T11:43:21.916Z,14.00
2024-04-09T11:48:28.103Z,14.00
2024-04-09T11:53:41.715Z,14.00
2024-04-09T11:58:50.110Z,13.90
2024-04-09T12:03:59.372Z,13.90
2024-04-09T12:09:11.023Z,13.90
2024-04-09T12:14:16.802Z,14.00
2024-04-09T12:19:22.610Z,13.90
2024-04-09T12:24:32.957Z,13.90
2024-04-09T12:29:38.999Z,13.90
2024-04-09T12:34:45.347Z,14.00
2024-04-09T12:39:53.959Z,14.10
2024-04-09T12:44:59.768Z,14.30
2024-04-09T12:50:06.263Z,14.40
2024-04-09T12:55:14.676Z,14.50
2024-04-09T13:05:29.151Z,14.50
2024-04-09T13:10:40.704Z,14.50
2024-04-09T13:20:56.350Z,14.40
2024-04-09T13:26:04.793Z,14.40
2024-04-09T13:31:10.546Z,14.40
2024-04-09T13:36:16.163Z,14.40
2024-04-09T13:41:25.106Z,14.40
2024-04-09T13:46:30.888Z,14.60
2024-04-09T13:51:36.653Z,14.70
2024-04-09T13:56:44.964Z,14.80
2024-04-09T14:01:50.513Z,15.00
2024-04-09T14:06:56.388Z,15.00
2024-04-09T14:12:04.666Z,15.00
2024-04-09T14:17:11.657Z,15.00
2024-04-09T14:22:17.500Z,15.00
2024-04-09T14:27:26.014Z,15.00
2024-04-09T14:32:32.841Z,14.90
2024-04-09T14:37:41.219Z,14.70
2024-04-09T14:42:54.414Z,14.40
2024-04-09T14:48:01.514Z,14.20
2024-04-09T14:53:07.987Z,14.00
2024-04-09T14:58:16.264Z,13.80
2024-04-09T15:03:21.950Z,13.90
2024-04-09T15:08:30.454Z,14.10
2024-04-09T15:13:39.081Z,14.10
2024-04-09T15:18:44.659Z,14.00
2024-04-09T15:23:50.196Z,13.90
2024-04-09T15:28:58.619Z,13.80
2024-04-09T15:34:04.387Z,13.60
2024-04-09T15:39:10.821Z,13.60
2024-04-09T15:44:19.195Z,13.50
2024-04-09T15:49:25.658Z,13.50
2024-04-09T15:54:31.308Z,13.50
2024-04-09T15:59:39.892Z,13.40
2024-04-09T16:04:46.241Z,13.10
2024-04-09T16:09:51.853Z,12.70
2024-04-09T16:15:00.583Z,12.40
2024-04-09T16:20:06.534Z,12.20
2024-04-09T16:25:13.113Z,12.10
2024-04-09T16:30:23.953Z,12.20
2024-04-09T16:35:29.511Z,12.20
2024-04-09T16:40:35.360Z,12.20
2024-04-09T16:45:43.631Z,12.30
2024-04-09T16:50:49.504Z,12.30
2024-04-09T16:56:01.906Z,12.30
2024-04-09T17:01:16.322Z,12.30
2024-04-09T17:06:21.868Z,12.30
2024-04-09T17:11:27.828Z,12.30
2024-04-09T17:16:36.962Z,12.30
2024-04-09T17:21:42.742Z,12.20
2024-04-09T17:26:48.283Z,12.20
2024-04-09T17:31:56.886Z,12.10
2024-04-09T17:37:02.545Z,12.10
2024-04-09T17:42:10.163Z,12.10
2024-04-09T17:47:18.622Z,12.10
2024-04-09T17:52:24.399Z,12.00
2024-04-09T17:57:30.259Z,12.00
2024-04-09T18:02:39.070Z,12.00
2024-04-09T18:07:45.020Z,12.00
2024-04-09T18:12:54.851Z,11.80
2024-04-09T18:18:03.642Z,11.80
2024-04-09T18:23:09.353Z,11.80
2024-04-09T18:28:16.697Z,11.70
2024-04-09T18:33:25.051Z,11.70
2024-04-09T18:38:31.068Z,11.70
2024-04-09T18:43:37.732Z,11.60
2024-04-09T18:48:46.173Z,11.60
2024-04-09T18:53:51.849Z,11.60
2024-04-09T18:58:57.408Z,11.60
2024-04-09T19:04:08.952Z,11.60
2024-04-09T19:09:15.618Z,11.50
2024-04-09T19:14:21.268Z,11.50
2024-04-09T19:19:29.596Z,11.40
2024-04-09T19:24:35.186Z,11.40
2024-04-09T19:29:40.774Z,11.40
2024-04-09T19:34:49.753Z,11.40
2024-04-09T19:39:55.490Z,11.40
2024-04-09T19:45:01.664Z,11.40
2024-04-09T19:50:10.784Z,11.40
2024-04-09T19:55:23.640Z,11.40
2024-04-09T20:00:29.486Z,11.40
2024-04-09T20:05:37.848Z,11.40
2024-04-09T20:10:51.277Z,11.40
2024-04-09T20:15:57.581Z,11.40
2024-04-09T20:21:05.896Z,11.40
2024-04-09T20:26:20.499Z,11.40
2024-04-09T20:31:28.451Z,11.40
2024-04-09T20:36:37.209Z,11.40
2024-04-09T20:41:45.780Z,11.40
2024-04-09T20:46:51.617Z,11.40
2024-04-09T20:51:59.855Z,11.40
2024-04-09T20:57:05.509Z,11.40
2024-04-09T21:02:14.544Z,11.40
2024-04-09T21:07:22.904Z,11.40
2024-04-09T21:12:28.595Z,11.40
2024-04-09T21:17:34.455Z,11.40
2024-04-09T21:22:46.850Z,11.40
2024-04-09T21:27:53.046Z,11.40
2024-04-09T21:32:58.834Z,11.40
2024-04-09T21:38:09.597Z,11.40
2024-04-09T21:43:17.815Z,11.40
2024-04-09T21:48:23.510Z,11.50
2024-04-09T21:53:32.076Z,11.50
2024-04-09T21:58:37.747Z,11.50
2024-04-09T22:08:52.036Z,11.50
2024-04-09T22:13:59.257Z,11.50
2024-04-09T22:19:07.126Z,11.50
2024-04-09T22:24:16.204Z,11.50
2024-04-09T22:29:22.238Z,11.50
2024-04-09T22:34:31.531Z,11.40
2024-04-09T22:39:39.873Z,11.40
2024-04-09T22:44:45.437Z,11.30
2024-04-09T22:49:54.119Z,11.20
2024-04-09T22:55:02.685Z,11.10
2024-04-09T23:00:59.827Z,11.10
2024-04-09T23:07:04.247Z,11.00
2024-04-09T23:12:39.181Z,11.00
2024-04-09T23:18:42.863Z,10.90
2024-04-09T23:23:54.324Z,10.90
2024-04-09T23:29:05.609Z,10.80
2024-04-09T23:34:15.619Z,10.70
2024-04-09T23:39:41.098Z,10.70
2024-04-09T23:45:41.280Z,10.60
2024-04-09T23:51:18.811Z,10.60
2024-04-09T23:56:47.440Z,10.70
